Time;durP1;ratioP1;P1;durP2;ratioP2;P2;SDS_P1;SDS_P2;PMS_P1;PMS_P2;Temp;Humidity;BMP_temperature;BMP_pressure;BME280_temperature;BME280_humidity;BME280_pressure;Samples;Min_cycle;Max_cycle;Signal;HPM_P1;HPM_P2
2022/09/25 00:00:20;;;;;;;6.30;2.45;;;;;;;13.92;69.72;101473.75;5080908;28;20036;-57
2022/09/25 00:02:45;;;;;;;9.98;2.22;;;;;;;13.85;69.61;101475.91;5069871;28;20040;-57
2022/09/25 00:05:10;;;;;;;11.65;2.25;;;;;;;13.83;69.24;101468.88;5073678;28;20040;-57
2022/09/25 00:07:35;;;;;;;6.72;2.03;;;;;;;13.86;69.61;101482.31;5069091;28;20082;-57
2022/09/25 00:10:01;;;;;;;8.55;2.42;;;;;;;13.83;69.46;101474.47;5066078;28;20036;-58
2022/09/25 00:12:26;;;;;;;13.27;2.13;;;;;;;13.81;69.60;101474.75;5057961;28;20376;-57
2022/09/25 00:14:52;;;;;;;14.77;2.30;;;;;;;13.83;69.29;101488.41;5078163;28;20032;-57
2022/09/25 00:17:17;;;;;;;7.53;1.98;;;;;;;13.79;69.26;101482.50;5070411;28;20033;-57
2022/09/25 00:19:51;;;;;;;5.43;1.92;;;;;;;13.84;69.50;101487.34;5058143;28;20389;-58
2022/09/25 00:22:18;;;;;;;7.03;2.05;;;;;;;13.77;69.19;101484.72;5054421;28;20078;-57
2022/09/25 00:24:44;;;;;;;8.07;1.67;;;;;;;13.73;69.76;101492.78;5069481;28;20024;-57
2022/09/25 00:27:09;;;;;;;7.97;2.03;;;;;;;13.73;69.46;101491.94;5071695;28;20033;-57
2022/09/25 00:29:36;;;;;;;7.57;2.10;;;;;;;13.75;69.92;101492.50;5064832;28;20048;-57
2022/09/25 00:32:03;;;;;;;6.45;2.08;;;;;;;13.73;69.69;101491.94;5055851;28;20107;-57
2022/09/25 00:34:29;;;;;;;7.63;1.95;;;;;;;13.71;69.80;101492.16;5054791;28;20032;-57
2022/09/25 00:36:54;;;;;;;7.30;1.98;;;;;;;13.70;69.35;101489.66;5073669;28;20028;-58
2022/09/25 00:39:19;;;;;;;6.28;2.40;;;;;;;13.66;69.81;101491.28;5059290;28;20032;-57
2022/09/25 00:41:45;;;;;;;6.88;2.40;;;;;;;13.69;69.73;101483.22;5059796;28;20025;-57
2022/09/25 00:44:44;;;;;;;5.82;2.00;;;;;;;13.73;69.70;101489.13;5054181;28;20032;-57
2022/09/25 00:47:14;;;;;;;8.40;2.35;;;;;;;13.67;69.57;101481.78;5075329;28;20031;-58
2022/09/25 00:49:40;;;;;;;7.95;2.33;;;;;;;13.69;69.40;101474.03;5082160;28;20032;-57
2022/09/25 00:52:12;;;;;;;8.00;1.83;;;;;;;13.69;69.26;101482.41;5070422;28;20024;-56
2022/09/25 00:54:51;;;;;;;7.63;2.30;;;;;;;13.72;69.36;101482.72;5068210;28;20111;-57
2022/09/25 00:57:20;;;;;;;6.00;1.85;;;;;;;13.64;69.15;101482.34;5072039;28;20028;-57
2022/09/25 00:59:51;;;;;;;8.52;2.08;;;;;;;13.64;69.51;101485.97;5062354;28;20021;-57
2022/09/25 01:02:23;;;;;;;8.00;1.98;;;;;;;13.62;69.21;101481.72;5065493;28;20027;-57
2022/09/25 01:04:50;;;;;;;8.40;2.30;;;;;;;13.62;69.24;101492.88;5083107;28;20039;-57
2022/09/25 01:07:16;;;;;;;6.03;1.85;;;;;;;13.64;69.15;101487.91;5059429;28;20035;-57
2022/09/25 01:09:43;;;;;;;7.22;2.28;;;;;;;13.62;69.37;101490.09;5079647;28;20028;-57
2022/09/25 01:12:08;;;;;;;9.00;2.55;;;;;;;13.60;69.57;101489.53;5066920;28;20037;-57
2022/09/25 01:14:34;;;;;;;5.78;2.35;;;;;;;13.58;69.35;101486.97;5073951;28;20392;-57
2022/09/25 01:17:16;;;;;;;12.25;2.63;;;;;;;13.61;69.74;101485.63;5071576;28;20538;-57
2022/09/25 01:20:04;;;;;;;4.90;2.00;;;;;;;13.61;69.73;101492.06;5073042;28;20016;-57
2022/09/25 01:22:38;;;;;;;8.40;2.10;;;;;;;13.56;69.45;101486.41;5068299;28;20547;-57
2022/09/25 01:25:25;;;;;;;9.98;2.08;;;;;;;13.57;69.15;101490.03;5082649;28;20503;-57
2022/09/25 01:28:07;;;;;;;10.35;2.55;;;;;;;13.51;69.12;101492.75;5068459;28;20062;-57
2022/09/25 01:30:39;;;;;;;7.28;2.05;;;;;;;13.51;69.11;101491.91;5088376;28;20511;-57
2022/09/25 01:33:17;;;;;;;6.22;2.17;;;;;;;13.50;69.56;101493.84;5065347;28;20666;-57
2022/09/25 01:36:01;;;;;;;8.18;1.95;;;;;;;13.51;69.57;101494.69;5069069;28;20376;-57
2022/09/25 01:38:49;;;;;;;6.05;1.90;;;;;;;13.50;69.57;101499.41;5060849;28;20400;-57
2022/09/25 01:41:30;;;;;;;6.78;2.40;;;;;;;13.44;69.33;101496.81;5061853;28;20476;-57
2022/09/25 01:44:08;;;;;;;5.28;1.95;;;;;;;13.41;69.61;101505.72;5057475;28;20029;-57
2022/09/25 01:46:39;;;;;;;4.90;1.80;;;;;;;13.33;69.29;101501.41;5067936;28;20039;-57
2022/09/25 01:49:15;;;;;;;8.55;2.17;;;;;;;13.35;69.37;101506.72;5052043;28;20029;-57
2022/09/25 01:51:48;;;;;;;8.85;2.00;;;;;;;13.34;69.35;101510.63;5065802;28;20025;-57
2022/09/25 01:54:20;;;;;;;7.55;2.03;;;;;;;13.29;69.31;101503.03;5073442;28;20028;-57
2022/09/25 01:56:54;;;;;;;8.95;2.13;;;;;;;13.29;69.01;101508.59;5059981;28;20025;-57
2022/09/25 01:59:23;;;;;;;11.65;2.47;;;;;;;13.33;68.69;101511.72;5055995;28;20048;-58
2022/09/25 02:01:51;;;;;;;9.23;2.30;;;;;;;13.27;69.16;101508.00;5066586;28;20035;-57
2022/09/25 02:04:24;;;;;;;9.93;2.15;;;;;;;13.27;69.37;101508.84;5068342;28;20111;-57
2022/09/25 02:06:52;;;;;;;8.38;2.10;;;;;;;13.22;68.89;101503.16;5059419;28;20508;-57
2022/09/25 02:09:41;;;;;;;6.20;2.00;;;;;;;13.29;69.25;101507.75;5073564;28;20032;-57
2022/09/25 02:12:33;;;;;;;5.80;2.33;;;;;;;13.14;69.20;101505.53;5072499;28;20028;-57
2022/09/25 02:15:06;;;;;;;10.82;2.60;;;;;;;13.11;69.21;101503.25;5054417;28;20089;-57
2022/09/25 02:20:33;;;;;;;8.38;2.22;;;;;;;13.08;69.05;101499.03;5074060;28;20078;-57
2022/09/25 02:23:11;;;;;;;6.05;2.10;;;;;;;13.09;69.34;101497.94;5063539;28;20353;-57
2022/09/25 02:25:47;;;;;;;7.82;2.45;;;;;;;13.06;69.57;101492.03;5072899;28;20040;-57
2022/09/25 02:28:13;;;;;;;6.00;2.10;;;;;;;13.00;69.24;101497.50;5070827;28;20024;-58
2022/09/25 02:30:38;;;;;;;5.03;1.95;;;;;;;13.00;69.39;101500.28;5071716;28;20048;-57
2022/09/25 02:33:03;;;;;;;9.18;2.30;;;;;;;12.97;69.04;101505.56;5070884;28;20079;-57
2022/09/25 02:35:30;;;;;;;8.23;1.80;;;;;;;12.94;69.39;101498.53;5085919;28;20070;-57
2022/09/25 02:37:56;;;;;;;5.43;2.05;;;;;;;12.89;68.94;101498.47;5068770;28;20073;-58
2022/09/25 02:40:33;;;;;;;7.93;2.15;;;;;;;12.88;69.37;101507.88;5070099;28;20028;-58
2022/09/25 02:43:18;;;;;;;6.70;2.40;;;;;;;12.86;69.09;101503.69;5076828;28;20086;-58
2022/09/25 02:46:02;;;;;;;8.68;2.00;;;;;;;12.87;69.27;101508.16;5075230;28;20040;-57
2022/09/25 02:48:44;;;;;;;3.90;1.55;;;;;;;12.83;69.77;101504.19;5080879;28;20051;-57
2022/09/25 02:51:23;;;;;;;9.65;2.38;;;;;;;12.86;69.53;101506.47;5077387;28;20032;-57
2022/09/25 02:54:03;;;;;;;6.18;2.30;;;;;;;12.83;69.46;101499.44;5064498;28;20480;-57
2022/09/25 02:56:36;;;;;;;6.78;2.20;;;;;;;12.81;69.83;101498.88;5055389;28;20025;-57
2022/09/25 02:59:07;;;;;;;9.07;2.20;;;;;;;12.81;69.76;101487.72;5078462;28;20048;-57
2022/09/25 03:01:37;;;;;;;5.85;1.92;;;;;;;12.77;69.79;101479.03;5072146;28;20384;-57
2022/09/25 03:04:04;;;;;;;5.60;2.20;;;;;;;12.74;69.48;101481.47;5062675;28;20035;-57
2022/09/25 03:06:30;;;;;;;8.20;2.60;;;;;;;12.70;69.82;101481.13;5084663;28;20066;-57
2022/09/25 03:08:58;;;;;;;4.75;2.00;;;;;;;12.66;69.61;101488.31;5077480;28;20032;-57
2022/09/25 03:11:27;;;;;;;6.22;2.60;;;;;;;12.62;69.59;101491.84;5069603;28;20068;-57
2022/09/25 03:14:01;;;;;;;6.30;2.42;;;;;;;12.59;69.67;101484.00;5078245;28;20033;-58
2022/09/25 03:16:33;;;;;;;7.25;2.70;;;;;;;12.61;69.76;101490.13;5069194;28;20028;-58
2022/09/25 03:19:00;;;;;;;8.23;2.75;;;;;;;12.57;69.71;101486.16;5079892;28;20426;-58
2022/09/25 03:21:25;;;;;;;7.40;2.47;;;;;;;12.56;69.52;101485.31;5075745;28;20029;-58
2022/09/25 03:23:50;;;;;;;4.13;1.98;;;;;;;12.51;69.92;101493.59;5069926;28;20032;-58
2022/09/25 03:26:15;;;;;;;5.72;2.30;;;;;;;12.51;69.93;101494.44;5057068;28;20029;-57
2022/09/25 03:28:41;;;;;;;18.90;2.50;;;;;;;12.52;69.68;101496.13;5062424;28;20388;-58
2022/09/25 03:31:09;;;;;;;7.93;2.50;;;;;;;12.48;70.11;101494.94;5058923;28;20049;-58
2022/09/25 03:33:38;;;;;;;6.32;2.70;;;;;;;12.47;70.08;101498.81;5060989;28;20467;-58
2022/09/25 03:36:09;;;;;;;8.68;2.53;;;;;;;12.49;70.23;101502.19;5061801;28;20036;-58
2022/09/25 03:38:35;;;;;;;9.63;3.08;;;;;;;12.47;70.29;101492.41;5058930;28;20502;-58
2022/09/25 03:41:01;;;;;;;7.93;3.08;;;;;;;12.42;70.19;101493.16;5067561;28;20033;-58
2022/09/25 03:43:26;;;;;;;6.65;3.30;;;;;;;12.45;70.54;101491.81;5059594;28;20041;-58
2022/09/25 03:45:52;;;;;;;6.00;3.28;;;;;;;12.44;70.40;101490.97;5075631;28;20447;-58
2022/09/25 03:48:17;;;;;;;10.80;4.00;;;;;;;12.44;70.78;101490.13;5071470;28;20032;-58
2022/09/25 03:50:43;;;;;;;11.95;4.07;;;;;;;12.42;70.33;101495.94;5067814;28;20076;-57
2022/09/25 03:53:09;;;;;;;9.82;3.80;;;;;;;12.44;70.60;101496.53;5065741;28;20028;-57
2022/09/25 03:55:34;;;;;;;9.65;4.40;;;;;;;12.41;70.04;101494.25;5057231;28;20035;-57
2022/09/25 03:58:00;;;;;;;8.00;3.80;;;;;;;12.45;70.59;101497.38;5064832;28;20037;-58
2022/09/25 04:00:25;;;;;;;6.97;4.18;;;;;;;12.45;70.07;101494.59;5088178;28;20107;-58
2022/09/25 04:02:50;;;;;;;11.82;4.63;;;;;;;12.41;70.73;101496.19;5070975;28;20037;-58
2022/09/25 04:05:17;;;;;;;6.22;4.70;;;;;;;12.35;70.36;101497.19;5067298;28;20136;-58
2022/09/25 04:07:43;;;;;;;8.57;4.63;;;;;;;12.34;70.61;101496.34;5054473;28;20400;-58
2022/09/25 04:10:08;;;;;;;6.75;4.38;;;;;;;12.31;70.35;101496.00;5054624;28;20036;-58
2022/09/25 04:12:34;;;;;;;9.85;4.60;;;;;;;12.29;70.56;101488.72;5060702;28;20081;-58
2022/09/25 04:14:59;;;;;;;9.00;5.60;;;;;;;12.25;70.72;101492.25;5071764;28;20025;-58
2022/09/25 04:17:24;;;;;;;7.00;5.20;;;;;;;12.29;70.50;101491.50;5071299;28;20021;-57
2022/09/25 04:19:51;;;;;;;12.77;6.13;;;;;;;12.27;70.32;101493.72;5072148;28;20033;-58
2022/09/25 04:22:16;;;;;;;8.40;5.38;;;;;;;12.26;70.32;101493.94;5070989;28;20024;-57
2022/09/25 04:24:47;;;;;;;10.10;5.50;;;;;;;12.25;70.40;101489.47;5082098;28;20491;-58
2022/09/25 04:27:18;;;;;;;7.65;5.63;;;;;;;12.21;70.43;101486.34;5080918;28;20024;-58
2022/09/25 04:29:44;;;;;;;8.38;5.13;;;;;;;12.17;70.67;101481.53;5060542;28;20045;-57
2022/09/25 04:34:53;;;;;;;9.25;6.05;;;;;;;12.14;70.45;101485.63;5069956;28;20149;-57
2022/09/25 04:37:22;;;;;;;10.52;6.50;;;;;;;12.14;70.44;101494.00;5070077;28;20032;-58
2022/09/25 04:39:47;;;;;;;8.82;5.95;;;;;;;12.15;70.37;101497.66;5075888;28;20487;-58
2022/09/25 04:42:13;;;;;;;9.45;6.25;;;;;;;12.10;69.88;101503.09;5077876;28;20028;-58
2022/09/25 04:44:38;;;;;;;9.68;6.07;;;;;;;12.16;69.84;101488.19;5083580;28;20020;-58
2022/09/25 04:47:03;;;;;;;9.30;6.13;;;;;;;12.14;69.76;101490.38;5078096;28;20029;-58
2022/09/25 04:49:29;;;;;;;9.93;6.25;;;;;;;12.10;69.93;101490.00;5071667;28;20461;-58
2022/09/25 04:51:55;;;;;;;10.55;6.80;;;;;;;12.06;70.15;101482.41;5082275;28;20020;-57
2022/09/25 04:54:20;;;;;;;8.77;6.28;;;;;;;12.06;70.21;101482.41;5085190;28;20024;-58
2022/09/25 04:56:45;;;;;;;8.55;6.95;;;;;;;12.05;70.20;101492.72;5091909;28;20028;-58
2022/09/25 04:59:10;;;;;;;6.88;5.68;;;;;;;12.02;69.98;101491.28;5076334;28;20158;-58
2022/09/25 05:01:37;;;;;;;10.95;6.53;;;;;;;11.95;69.89;101489.72;5089035;28;20020;-58
2022/09/25 05:04:02;;;;;;;7.53;5.97;;;;;;;11.92;70.11;101482.72;5077394;28;20028;-58
2022/09/25 05:06:28;;;;;;;10.45;6.22;;;;;;;11.90;69.80;101479.31;5078714;28;20506;-57
2022/09/25 05:08:53;;;;;;;10.05;7.05;;;;;;;11.92;69.80;101479.94;5077025;28;20031;-57
2022/09/25 05:11:20;;;;;;;10.13;6.43;;;;;;;11.90;70.30;101484.03;5075832;28;20032;-57
2022/09/25 05:13:50;;;;;;;9.80;6.63;;;;;;;11.95;70.09;101482.22;5067105;28;20027;-57
2022/09/25 05:16:15;;;;;;;11.27;7.10;;;;;;;11.87;70.04;101481.75;5070924;28;20494;-57
2022/09/25 05:18:40;;;;;;;9.65;6.82;;;;;;;11.86;70.07;101480.06;5061823;28;20029;-57
2022/09/25 05:21:05;;;;;;;11.25;7.45;;;;;;;11.84;69.93;101477.53;5054662;28;20044;-57
2022/09/25 05:23:31;;;;;;;9.70;7.03;;;;;;;11.83;70.36;101481.44;5064403;28;20070;-57
2022/09/25 05:26:02;;;;;;;10.38;6.88;;;;;;;11.80;70.04;101474.38;5061953;28;20025;-56
2022/09/25 05:28:31;;;;;;;9.48;6.85;;;;;;;11.78;70.21;101476.53;5060325;28;20111;-56
2022/09/25 05:31:02;;;;;;;10.65;6.68;;;;;;;11.77;69.68;101474.84;5064202;28;20151;-56
2022/09/25 05:33:27;;;;;;;11.25;6.28;;;;;;;11.71;69.55;101473.06;5055426;28;20021;-56
2022/09/25 05:35:53;;;;;;;9.85;6.82;;;;;;;11.71;69.57;101470.28;5054519;28;20388;-57
2022/09/25 05:38:18;;;;;;;10.23;7.13;;;;;;;11.71;69.20;101475.00;5053373;28;20070;-57
2022/09/25 05:40:43;;;;;;;8.10;6.57;;;;;;;11.66;69.33;101472.94;5064249;28;20457;-57
2022/09/25 05:43:09;;;;;;;10.13;7.43;;;;;;;11.66;69.52;101472.94;5055075;28;20025;-57
2022/09/25 05:45:34;;;;;;;7.95;6.65;;;;;;;11.63;69.38;101472.59;5056690;28;20029;-57
2022/09/25 05:48:02;;;;;;;10.57;6.95;;;;;;;11.62;69.18;101479.25;5067928;28;20447;-57
2022/09/25 05:50:28;;;;;;;10.98;6.50;;;;;;;11.59;69.50;101482.50;5068538;28;20395;-57
2022/09/25 05:52:58;;;;;;;10.25;7.20;;;;;;;11.54;69.34;101483.25;5056943;28;20104;-58
2022/09/25 05:55:24;;;;;;;8.65;6.50;;;;;;;11.52;69.20;101483.50;5068709;28;20516;-58
2022/09/25 05:57:49;;;;;;;8.55;6.78;;;;;;;11.56;69.54;101489.44;5058902;28;20032;-57
2022/09/25 06:00:16;;;;;;;8.93;6.72;;;;;;;11.55;69.27;101488.59;5051829;28;20029;-58
2022/09/25 06:02:41;;;;;;;8.25;6.90;;;;;;;11.51;69.34;101498.50;5072821;28;20071;-58
2022/09/25 06:05:07;;;;;;;12.70;7.10;;;;;;;11.54;69.64;101497.16;5065764;28;20385;-57
2022/09/25 06:07:33;;;;;;;11.77;7.25;;;;;;;11.54;70.01;101503.56;5060032;28;20034;-57
2022/09/25 06:09:58;;;;;;;11.02;7.70;;;;;;;11.53;70.35;101490.75;5065547;28;20119;-57
2022/09/25 06:12:24;;;;;;;12.60;7.72;;;;;;;11.57;69.90;101495.81;5065691;28;20036;-57
2022/09/25 06:14:51;;;;;;;10.23;7.60;;;;;;;11.57;70.32;101495.81;5091645;28;20028;-57
2022/09/25 06:17:16;;;;;;;11.07;7.22;;;;;;;11.59;70.39;101493.63;5071351;28;20020;-57
2022/09/25 06:19:41;;;;;;;13.05;8.32;;;;;;;11.60;70.65;101509.25;5080156;28;20036;-57
2022/09/25 06:22:07;;;;;;;10.23;7.90;;;;;;;11.63;70.65;101497.63;5070110;28;20017;-57
2022/09/25 06:24:32;;;;;;;10.98;7.60;;;;;;;11.64;70.72;101496.56;5075335;28;20482;-57
2022/09/25 06:26:57;;;;;;;11.18;8.30;;;;;;;11.65;70.84;101496.28;5064848;28;20063;-57
2022/09/25 06:29:23;;;;;;;10.82;8.55;;;;;;;11.67;70.97;101496.03;5064431;28;20084;-57
2022/09/25 06:31:49;;;;;;;13.00;8.55;;;;;;;11.62;71.19;101494.00;5072470;28;20025;-57
2022/09/25 06:34:14;;;;;;;12.00;8.40;;;;;;;11.65;71.06;101498.22;5053950;28;20033;-59
2022/09/25 06:36:39;;;;;;;13.18;8.68;;;;;;;11.66;70.85;101497.97;5060443;28;20070;-59
2022/09/25 06:39:05;;;;;;;13.73;8.43;;;;;;;11.68;71.50;101501.38;5080042;28;20453;-58
2022/09/25 06:41:31;;;;;;;13.68;8.30;;;;;;;11.70;71.51;101501.97;5079665;28;20085;-58
2022/09/25 06:43:56;;;;;;;13.45;8.75;;;;;;;11.70;71.64;101495.56;5070616;28;20028;-58
2022/09/25 06:46:22;;;;;;;13.05;8.23;;;;;;;11.73;72.13;101495.91;5076070;28;20033;-59
2022/09/25 06:48:56;;;;;;;10.77;8.35;;;;;;;11.76;71.95;101494.59;5077065;28;20460;-60
2022/09/25 06:51:22;;;;;;;13.95;8.93;;;;;;;11.77;72.10;101499.88;5076435;28;20032;-57
2022/09/25 06:53:51;;;;;;;13.68;8.35;;;;;;;11.79;72.35;101506.06;5057815;28;20107;-59
2022/09/25 06:56:16;;;;;;;13.98;8.75;;;;;;;11.82;72.49;101506.66;5085888;28;20032;-58
2022/09/25 06:58:42;;;;;;;11.68;8.50;;;;;;;11.87;72.83;101510.44;5068752;28;20497;-58
2022/09/25 07:01:09;;;;;;;12.90;9.25;;;;;;;11.88;72.60;101506.56;5081148;28;20074;-57
2022/09/25 07:03:43;;;;;;;10.75;7.97;;;;;;;11.89;72.61;101513.81;5089496;28;20028;-58
2022/09/25 07:06:31;;;;;;;10.80;8.15;;;;;;;11.92;72.90;101507.75;5073703;28;20024;-58
2022/09/25 07:08:57;;;;;;;12.10;8.68;;;;;;;11.95;72.85;101504.47;5067762;28;20033;-57
2022/09/25 07:11:26;;;;;;;12.02;7.95;;;;;;;12.01;72.83;101513.78;5054280;28;20075;-58
2022/09/25 07:13:53;;;;;;;14.00;7.72;;;;;;;12.00;73.43;101512.94;5064916;28;20039;-58
2022/09/25 07:16:21;;;;;;;11.27;8.32;;;;;;;12.06;73.56;101513.03;5063919;28;20025;-57
2022/09/25 07:18:47;;;;;;;11.95;7.78;;;;;;;12.06;73.50;101516.66;5087878;28;20379;-57
2022/09/25 07:21:17;;;;;;;11.05;7.55;;;;;;;12.10;73.92;101517.00;5059628;28;20043;-58
2022/09/25 07:23:45;;;;;;;8.60;7.70;;;;;;;12.14;73.64;101518.19;5061519;28;20037;-57
2022/09/25 07:26:14;;;;;;;13.32;8.32;;;;;;;12.18;74.01;101519.38;5069448;28;20623;-57
2022/09/25 07:28:41;;;;;;;11.02;7.63;;;;;;;12.26;73.72;101521.78;5069796;28;20380;-57
2022/09/25 07:31:13;;;;;;;11.30;7.05;;;;;;;12.32;73.94;101515.22;5062917;28;20132;-57
2022/09/25 07:33:39;;;;;;;8.10;6.32;;;;;;;12.38;73.44;101514.25;5053618;28;20025;-57
2022/09/25 07:36:05;;;;;;;9.43;6.00;;;;;;;12.46;73.84;101522.19;5059626;28;20028;-57
2022/09/25 07:38:31;;;;;;;8.45;5.88;;;;;;;12.55;73.43;101519.84;5059050;28;20024;-57
2022/09/25 07:40:56;;;;;;;10.05;6.70;;;;;;;12.67;73.64;101519.78;5064748;28;20073;-57
2022/09/25 07:43:22;;;;;;;9.00;6.55;;;;;;;12.76;73.10;101526.63;5073845;28;20020;-57
2022/09/25 07:45:53;;;;;;;11.38;6.10;;;;;;;12.92;73.17;101519.38;5053217;28;20075;-57
2022/09/25 07:48:22;;;;;;;9.98;6.30;;;;;;;13.03;72.95;101522.09;5054374;28;20032;-57
2022/09/25 07:50:48;;;;;;;16.08;6.25;;;;;;;13.17;72.58;101524.56;5056557;28;20029;-57
2022/09/25 07:53:14;;;;;;;38.55;7.25;;;;;;;13.30;72.67;101515.00;5057817;28;20025;-58
2022/09/25 07:55:40;;;;;;;10.52;5.60;;;;;;;13.43;72.07;101515.50;5071284;28;20021;-57
2022/09/25 07:58:05;;;;;;;10.40;4.80;;;;;;;13.58;71.40;101514.03;5065173;28;20025;-58
2022/09/25 08:00:30;;;;;;;8.02;4.93;;;;;;;13.71;71.46;101510.84;5067443;28;20025;-57
2022/09/25 08:02:57;;;;;;;9.23;4.35;;;;;;;13.85;70.49;101511.34;5071171;28;20033;-57
2022/09/25 08:05:23;;;;;;;6.35;3.92;;;;;;;13.94;70.04;101510.63;5078217;28;20047;-58
2022/09/25 08:07:48;;;;;;;8.32;4.60;;;;;;;14.07;70.11;101512.19;5074397;28;20024;-58
2022/09/25 08:10:13;;;;;;;6.07;3.85;;;;;;;14.20;68.59;101508.16;5074202;28;20051;-58
2022/09/25 08:12:39;;;;;;;6.55;4.22;;;;;;;14.35;69.52;101504.69;5081499;28;20483;-58
2022/09/25 08:15:05;;;;;;;7.05;4.45;;;;;;;14.46;69.00;101506.47;5080900;28;20070;-58
2022/09/25 08:17:30;;;;;;;9.60;3.88;;;;;;;14.59;68.70;101508.03;5069993;28;20025;-58
2022/09/25 08:19:56;;;;;;;5.80;3.50;;;;;;;14.71;68.29;101505.94;5085455;28;20036;-58
2022/09/25 08:22:22;;;;;;;8.00;3.72;;;;;;;14.81;68.24;101506.00;5070837;28;20032;-58
2022/09/25 08:24:48;;;;;;;13.35;3.95;;;;;;;14.94;68.08;101508.38;5074527;28;20013;-58
2022/09/25 08:27:13;;;;;;;5.78;3.50;;;;;;;15.10;67.10;101502.91;5091704;28;20061;-59
2022/09/25 08:29:39;;;;;;;9.32;3.10;;;;;;;15.21;67.05;101504.69;5078305;28;20495;-58
2022/09/25 08:32:05;;;;;;;7.22;2.97;;;;;;;15.34;66.72;101503.38;5074597;28;20081;-59
2022/09/25 08:34:31;;;;;;;6.82;2.30;;;;;;;15.41;65.17;101507.63;5072176;28;20024;-59
2022/09/25 08:36:57;;;;;;;4.45;2.20;;;;;;;15.50;65.18;101505.16;5076062;28;20838;-59
2022/09/25 08:39:22;;;;;;;7.72;2.58;;;;;;;15.57;64.53;101510.50;5079028;28;20028;-59
2022/09/25 08:41:51;;;;;;;5.07;2.03;;;;;;;15.69;64.92;101508.38;5084035;28;20376;-59
2022/09/25 08:44:32;;;;;;;5.43;1.90;;;;;;;15.82;64.23;101507.03;5065137;28;20625;-58
2022/09/25 08:50:03;;;;;;;6.47;1.77;;;;;;;16.04;64.28;101518.06;5084423;28;20140;-59
2022/09/25 08:52:30;;;;;;;5.00;1.67;;;;;;;16.12;62.72;101509.13;5063333;28;20089;-59
2022/09/25 08:54:55;;;;;;;3.78;1.60;;;;;;;16.22;63.05;101514.75;5059334;28;20025;-59
2022/09/25 08:57:42;;;;;;;6.78;1.92;;;;;;;16.33;63.48;101516.47;5052425;28;20029;-59
2022/09/25 09:00:22;;;;;;;8.20;1.65;;;;;;;16.38;62.72;101515.63;5068118;28;20032;-59
2022/09/25 09:02:57;;;;;;;9.30;1.80;;;;;;;16.42;62.27;101509.19;5056970;28;20480;-58
2022/09/25 09:05:36;;;;;;;5.75;2.47;;;;;;;16.42;61.95;101505.56;5052803;28;20083;-57
2022/09/25 09:08:06;;;;;;;5.43;1.50;;;;;;;16.43;61.42;101508.09;5059544;28;20430;-58
2022/09/25 09:10:34;;;;;;;6.30;1.30;;;;;;;16.34;60.19;101509.75;5059413;28;20385;-58
2022/09/25 09:13:21;;;;;;;8.48;1.60;;;;;;;16.36;61.51;101501.91;5052792;28;20029;-58
2022/09/25 09:16:05;;;;;;;5.50;1.45;;;;;;;16.47;60.95;101501.97;5057416;28;20154;-58
2022/09/25 09:18:36;;;;;;;3.83;1.42;;;;;;;16.58;59.86;101496.06;5061152;28;20032;-58
2022/09/25 09:21:24;;;;;;;5.43;1.48;;;;;;;16.69;60.96;101494.97;5069492;28;20028;-58
2022/09/25 09:24:03;;;;;;;4.95;1.60;;;;;;;16.80;60.63;101495.84;5065211;28;20573;-58
2022/09/25 09:26:44;;;;;;;7.65;1.40;;;;;;;16.89;59.60;101496.97;5063627;28;20377;-58
2022/09/25 09:29:23;;;;;;;6.10;1.33;;;;;;;16.98;58.35;101496.41;5066911;28;20384;-58
2022/09/25 09:32:01;;;;;;;7.97;1.73;;;;;;;16.98;58.30;101497.28;5070676;28;20029;-58
2022/09/25 09:34:45;;;;;;;4.43;1.23;;;;;;;16.89;57.96;101488.56;5077051;28;20043;-57
2022/09/25 09:37:16;;;;;;;5.47;1.27;;;;;;;16.87;57.84;101493.63;5077219;28;20032;-58
2022/09/25 09:39:59;;;;;;;4.28;1.13;;;;;;;16.87;58.53;101493.63;5071652;28;20032;-58
2022/09/25 09:42:36;;;;;;;6.30;1.35;;;;;;;17.01;59.20;101490.25;5083990;28;20056;-58
2022/09/25 09:45:11;;;;;;;6.82;1.35;;;;;;;17.06;58.25;101484.66;5071633;28;20111;-58
2022/09/25 09:47:47;;;;;;;6.38;1.70;;;;;;;17.15;57.54;101489.41;5084275;28;20036;-59
2022/09/25 09:50:31;;;;;;;4.95;1.23;;;;;;;17.26;57.91;101486.59;5069691;28;20024;-58
2022/09/25 09:53:04;;;;;;;7.43;1.30;;;;;;;17.36;56.48;101480.94;5059081;28;20071;-59
2022/09/25 09:55:39;;;;;;;4.18;1.25;;;;;;;17.46;57.24;101480.09;5077443;28;20032;-58
2022/09/25 09:58:16;;;;;;;3.08;1.05;;;;;;;17.37;56.80;101480.69;5063177;28;20070;-59
2022/09/25 10:00:42;;;;;;;3.13;0.95;;;;;;;17.31;56.24;101475.34;5067567;28;20027;-58
2022/09/25 10:03:29;;;;;;;8.55;1.27;;;;;;;17.30;56.83;101470.88;5068029;28;20103;-59
2022/09/25 10:05:58;;;;;;;4.70;1.10;;;;;;;17.24;55.83;101469.19;5058587;28;20055;-58
2022/09/25 10:08:23;;;;;;;4.47;1.08;;;;;;;17.32;55.46;101474.22;5061556;28;20028;-57
2022/09/25 10:10:52;;;;;;;6.10;1.00;;;;;;;17.39;53.98;101475.63;5058148;28;20491;-57
2022/09/25 10:13:31;;;;;;;5.38;1.20;;;;;;;17.52;55.79;101470.53;5077895;28;20033;-57
2022/09/25 10:16:04;;;;;;;6.13;1.27;;;;;;;17.67;55.84;101470.50;5059227;28;20037;-57
2022/09/25 10:18:39;;;;;;;3.85;1.10;;;;;;;17.79;55.83;101465.41;5077394;28;20039;-57
2022/09/25 10:21:08;;;;;;;4.88;1.17;;;;;;;17.86;52.85;101463.16;5079573;28;20028;-57
2022/09/25 10:23:40;;;;;;;8.13;1.27;;;;;;;17.93;53.10;101467.63;5078877;28;20036;-58
2022/09/25 10:26:26;;;;;;;3.67;1.27;;;;;;;18.01;55.35;101456.63;5063001;28;20539;-58
2022/09/25 10:28:56;;;;;;;3.60;0.90;;;;;;;17.82;52.03;101461.22;5066121;28;20029;-58
2022/09/25 10:31:24;;;;;;;4.03;0.93;;;;;;;17.79;52.70;101462.59;5075398;28;20113;-58
2022/09/25 10:33:58;;;;;;;3.65;0.80;;;;;;;17.74;53.12;101461.78;5068902;28;20062;-58
2022/09/25 10:36:37;;;;;;;2.75;0.88;;;;;;;17.58;52.93;101452.56;5073852;28;20698;-58
2022/09/25 10:39:04;;;;;;;4.03;0.90;;;;;;;17.44;53.07;101460.72;5068323;28;20033;-58
2022/09/25 10:41:41;;;;;;;4.07;1.13;;;;;;;17.54;52.52;101448.66;5070237;28;20036;-58
2022/09/25 10:44:20;;;;;;;7.85;1.02;;;;;;;17.61;52.09;101463.22;5083536;28;20027;-59
2022/09/25 10:52:17;;;;;;;3.08;1.08;;;;;;;17.95;52.48;101462.53;5088523;28;20146;-58
2022/09/25 10:54:43;;;;;;;4.22;0.82;;;;;;;18.03;52.13;101459.13;5081580;28;20479;-58
2022/09/25 10:57:32;;;;;;;3.58;0.90;;;;;;;18.07;52.71;101460.22;5069752;28;20047;-58
2022/09/25 11:00:01;;;;;;;2.25;0.90;;;;;;;18.02;50.30;101455.50;5070944;28;20032;-57
2022/09/25 11:02:40;;;;;;;6.68;1.42;;;;;;;18.06;51.81;101459.41;5064593;28;20445;-57
2022/09/25 11:05:14;;;;;;;4.07;1.00;;;;;;;18.11;50.97;101450.94;5071229;28;20396;-58
2022/09/25 11:07:51;;;;;;;3.25;1.00;;;;;;;18.17;50.33;101450.94;5058132;28;20488;-58
2022/09/25 11:10:26;;;;;;;3.65;1.08;;;;;;;18.16;49.85;101450.09;5071193;28;20024;-58
2022/09/25 11:12:53;;;;;;;5.57;1.30;;;;;;;18.12;49.45;101451.81;5073770;28;20033;-59
2022/09/25 11:15:22;;;;;;;5.32;1.20;;;;;;;18.08;48.82;101447.91;5059210;28;20177;-59
2022/09/25 11:17:53;;;;;;;4.18;0.88;;;;;;;18.09;49.16;101456.03;5066671;28;20044;-58
2022/09/25 11:20:28;;;;;;;4.97;0.93;;;;;;;17.99;49.24;101463.66;5065013;28;20024;-58
2022/09/25 11:23:28;;;;;;;6.65;1.10;;;;;;;18.02;51.48;101454.66;5051772;28;20036;-58
2022/09/25 11:26:13;;;;;;;4.20;0.85;;;;;;;18.08;50.29;101447.91;5064844;28;20047;-57
2022/09/25 11:29:06;;;;;;;8.90;2.30;;;;;;;18.24;51.52;101448.66;5052809;28;20036;-57
2022/09/25 11:31:50;;;;;;;;;;;;;;;18.30;52.85;101450.28;5047776;28;20049;-58
2022/09/25 11:34:47;;;;;;;3.80;1.20;;;;;;;18.28;50.63;101449.75;5069299;28;20325;-58
2022/09/25 11:37:23;;;;;;;3.05;0.80;;;;;;;18.26;49.78;101438.78;5063090;28;20090;-57
2022/09/25 11:43:10;;;;;;;3.70;1.00;;;;;;;18.18;50.03;101444.19;5058859;28;20045;-57
2022/09/25 11:45:40;;;;;;;2.08;0.90;;;;;;;17.99;49.47;101436.41;5067712;28;20045;-58
2022/09/25 11:48:20;;;;;;;2.40;0.80;;;;;;;17.89;49.45;101440.09;5070100;28;20361;-58
2022/09/25 11:51:03;;;;;;;4.07;1.00;;;;;;;17.82;47.40;101436.78;5056099;28;20484;-58
2022/09/25 11:53:46;;;;;;;2.05;0.60;;;;;;;17.77;46.75;101427.53;5049193;28;20063;-57
2022/09/25 11:56:14;;;;;;;;;;;;;;;17.90;50.48;101421.28;5059608;28;20557;-58